Time;durP1;ratioP1;P1;durP2;ratioP2;P2;SDS_P1;SDS_P2;PMS_P1;PMS_P2;Temp;Humidity;BMP_temperature;BMP_pressure;BME280_temperature;BME280_humidity;BME280_pressure;Samples;Min_cycle;Max_cycle;Signal;HPM_P1;HPM_P2
2023/01/27 00:01:56;;;;;;;18.43;10.77;;;2.30;67.10;;;;;;5052681;28;20183;-80
2023/01/27 00:04:22;;;;;;;19.30;11.87;;;2.30;67.30;;;;;;5054603;28;20411;-80
2023/01/27 00:06:48;;;;;;;15.80;10.73;;;2.30;67.60;;;;;;5053901;28;20440;-79
2023/01/27 00:09:14;;;;;;;18.03;11.27;;;2.20;67.70;;;;;;5054429;28;20490;-77
2023/01/27 00:14:24;;;;;;;20.00;11.50;;;2.40;67.70;;;;;;5054228;28;20455;-79
2023/01/27 00:16:49;;;;;;;17.70;10.47;;;2.40;67.20;;;;;;5055740;28;20410;-78
2023/01/27 00:19:18;;;;;;;16.27;10.97;;;2.40;67.00;;;;;;5056465;28;20198;-80
2023/01/27 00:24:35;;;;;;;18.57;11.30;;;2.40;66.80;;;;;;5056699;28;20392;-78
2023/01/27 00:27:02;;;;;;;18.53;11.13;;;2.30;66.90;;;;;;5057736;28;20371;-78
2023/01/27 00:29:28;;;;;;;21.83;11.00;;;2.30;67.00;;;;;;5057360;28;20454;-78
2023/01/27 00:34:39;;;;;;;17.77;11.13;;;2.40;67.00;;;;;;5058105;28;20164;-78
2023/01/27 00:37:05;;;;;;;16.27;10.17;;;2.40;67.10;;;;;;5058576;28;20406;-78
2023/01/27 00:39:30;;;;;;;15.67;10.10;;;2.30;67.00;;;;;;5059566;28;20461;-80
2023/01/27 00:41:56;;;;;;;18.27;10.03;;;2.30;67.40;;;;;;5059239;28;20239;-78
2023/01/27 00:44:22;;;;;;;17.53;11.23;;;2.40;66.70;;;;;;5059683;28;20185;-78
2023/01/27 00:46:48;;;;;;;15.97;10.60;;;2.50;66.40;;;;;;5059781;28;20193;-79
2023/01/27 00:49:15;;;;;;;14.17;9.40;;;2.50;66.20;;;;;;5059731;28;20440;-79
2023/01/27 00:51:41;;;;;;;16.77;9.33;;;2.40;66.40;;;;;;5060208;28;20434;-79
2023/01/27 00:54:07;;;;;;;14.57;8.97;;;2.50;66.30;;;;;;5058247;28;20988;-79
2023/01/27 00:56:33;;;;;;;17.60;9.40;;;2.40;66.00;;;;;;5058475;28;20498;-78
2023/01/27 00:58:58;;;;;;;16.30;9.80;;;2.50;66.00;;;;;;5038149;28;20199;-77
2023/01/27 01:01:24;;;;;;;13.97;8.50;;;2.50;65.70;;;;;;5036801;28;20414;-77
2023/01/27 01:03:50;;;;;;;16.40;9.07;;;2.60;65.60;;;;;;5037343;28;20265;-77
2023/01/27 01:06:17;;;;;;;14.03;8.10;;;2.40;65.50;;;;;;5037517;28;20167;-77
2023/01/27 01:08:42;;;;;;;14.90;7.93;;;2.40;65.50;;;;;;5037151;28;20242;-77
2023/01/27 01:11:12;;;;;;;15.27;8.80;;;2.40;65.30;;;;;;5037438;28;20869;-77
2023/01/27 01:13:38;;;;;;;11.67;7.50;;;2.30;65.10;;;;;;5037418;28;20194;-77
2023/01/27 01:16:15;;;;;;;14.47;9.03;;;2.30;65.20;;;;;;5037181;28;20488;-77
2023/01/27 01:18:42;;;;;;;12.40;7.70;;;2.30;65.20;;;;;;5037232;28;20428;-78
2023/01/27 01:21:08;;;;;;;13.53;8.47;;;2.30;65.00;;;;;;5037031;28;20416;-77
2023/01/27 01:23:37;;;;;;;13.47;7.90;;;2.20;64.90;;;;;;5037093;28;20407;-78
2023/01/27 01:26:03;;;;;;;15.13;8.80;;;2.20;65.10;;;;;;5037030;28;20760;-77
2023/01/27 01:28:29;;;;;;;10.60;7.87;;;2.10;65.20;;;;;;5037128;28;20433;-77
2023/01/27 01:30:54;;;;;;;13.30;7.73;;;2.10;65.60;;;;;;5036019;28;20691;-77
2023/01/27 01:33:20;;;;;;;14.93;9.40;;;2.10;65.50;;;;;;5037284;28;20273;-78
2023/01/27 01:35:46;;;;;;;13.83;8.77;;;2.10;65.60;;;;;;5035461;28;20204;-77
2023/01/27 01:38:12;;;;;;;15.10;9.03;;;2.10;65.80;;;;;;5037536;28;20189;-77
2023/01/27 01:40:42;;;;;;;13.53;8.53;;;2.20;65.80;;;;;;5036466;28;20187;-78
2023/01/27 01:43:15;;;;;;;14.57;9.63;;;2.20;65.70;;;;;;5037579;28;20395;-79
2023/01/27 01:45:53;;;;;;;14.90;9.73;;;2.10;65.70;;;;;;5037770;28;20412;-79
2023/01/27 01:48:33;;;;;;;17.03;9.57;;;2.20;65.70;;;;;;5037631;28;20478;-78
2023/01/27 01:51:12;;;;;;;15.00;9.50;;;2.10;65.50;;;;;;5035211;28;20410;-78
2023/01/27 01:53:53;;;;;;;18.20;8.83;;;2.10;65.40;;;;;;5036364;28;20536;-78
2023/01/27 01:56:36;;;;;;;16.50;8.33;;;2.00;65.50;;;;;;5037136;28;20440;-77
2023/01/27 01:59:07;;;;;;;13.40;8.80;;;2.00;65.50;;;;;;5045048;28;20429;-77
2023/01/27 02:01:32;;;;;;;18.23;9.60;;;2.00;65.30;;;;;;5037094;28;20394;-77
2023/01/27 02:04:01;;;;;;;16.67;10.30;;;2.00;65.50;;;;;;5044954;28;20432;-77
2023/01/27 02:06:27;;;;;;;17.73;10.87;;;1.80;65.50;;;;;;5048653;28;20178;-78
2023/01/27 02:08:54;;;;;;;17.30;9.30;;;1.80;65.50;;;;;;5044899;28;20457;-76
2023/01/27 02:11:20;;;;;;;14.73;8.90;;;1.80;65.50;;;;;;5043645;28;20474;-78
2023/01/27 02:13:45;;;;;;;16.77;9.67;;;1.80;65.60;;;;;;5044635;28;20403;-78
2023/01/27 02:16:12;;;;;;;16.63;9.17;;;1.80;65.80;;;;;;5041945;28;20455;-78
2023/01/27 02:18:39;;;;;;;19.17;11.87;;;1.80;65.40;;;;;;5036016;28;20437;-78
2023/01/27 02:21:05;;;;;;;16.17;9.33;;;1.70;65.70;;;;;;5036191;28;20442;-78
2023/01/27 02:23:58;;;;;;;19.67;9.47;;;1.80;65.30;;;;;;5036488;28;20498;-78
2023/01/27 02:26:50;;;;;;;14.40;8.27;;;1.80;64.70;;;;;;5036447;28;20926;-78
2023/01/27 02:29:15;;;;;;;12.00;8.00;;;1.80;64.50;;;;;;5034158;28;20442;-78
2023/01/27 02:31:41;;;;;;;13.23;8.20;;;1.70;64.70;;;;;;5036234;28;20416;-78
2023/01/27 02:34:11;;;;;;;16.57;8.63;;;1.70;64.80;;;;;;5036270;28;20199;-78
2023/01/27 02:36:42;;;;;;;12.77;8.40;;;1.60;64.60;;;;;;5035928;28;20196;-78
2023/01/27 02:39:11;;;;;;;13.97;7.77;;;1.50;65.00;;;;;;5034546;28;20779;-78
2023/01/27 02:41:41;;;;;;;11.30;7.47;;;1.50;65.10;;;;;;5035850;28;20408;-78
2023/01/27 02:44:08;;;;;;;11.80;7.73;;;1.50;65.20;;;;;;5035912;28;20440;-77
2023/01/27 02:46:34;;;;;;;13.93;8.00;;;1.60;65.10;;;;;;5034659;28;20448;-78
2023/01/27 02:49:01;;;;;;;13.17;8.30;;;1.50;64.90;;;;;;5035823;28;20426;-78
2023/01/27 02:51:27;;;;;;;12.70;7.40;;;1.50;65.10;;;;;;5035986;28;20467;-78
2023/01/27 02:53:52;;;;;;;17.63;8.50;;;1.30;65.00;;;;;;5035492;28;20910;-77
2023/01/27 02:56:18;;;;;;;13.80;8.57;;;1.30;65.40;;;;;;5035416;28;20247;-77
2023/01/27 02:58:43;;;;;;;14.93;8.87;;;1.30;65.50;;;;;;5034223;28;20251;-77
2023/01/27 03:01:09;;;;;;;13.40;8.20;;;1.40;65.70;;;;;;5035909;28;20171;-77
2023/01/27 03:03:35;;;;;;;14.70;8.83;;;1.30;65.30;;;;;;5035359;28;20164;-78
2023/01/27 03:06:01;;;;;;;15.70;9.30;;;1.30;65.50;;;;;;5035881;28;20168;-78
2023/01/27 03:08:26;;;;;;;16.33;8.70;;;1.40;65.70;;;;;;5035325;28;20670;-79
2023/01/27 03:10:53;;;;;;;13.00;7.23;;;1.50;65.10;;;;;;5035384;28;20191;-78
2023/01/27 03:13:26;;;;;;;15.50;7.77;;;1.50;65.00;;;;;;5035307;28;20179;-78
2023/01/27 03:18:37;;;;;;;13.70;7.13;;;1.40;65.10;;;;;;5036129;28;20433;-78
2023/01/27 03:21:05;;;;;;;12.70;7.60;;;1.40;65.10;;;;;;5035564;28;20407;-78
2023/01/27 03:23:33;;;;;;;12.20;8.47;;;1.40;65.00;;;;;;5035475;28;20406;-78
2023/01/27 03:26:00;;;;;;;12.70;7.90;;;1.40;64.60;;;;;;5035395;28;20799;-78
2023/01/27 03:28:26;;;;;;;15.43;8.60;;;1.40;64.60;;;;;;5035253;28;20450;-78
2023/01/27 03:31:01;;;;;;;10.50;6.50;;;1.40;64.60;;;;;;5035720;28;20422;-78
2023/01/27 03:33:27;;;;;;;13.73;7.87;;;1.30;64.60;;;;;;5034123;28;20245;-78
2023/01/27 03:46:50;;;;;;;11.80;7.37;;;1.20;64.70;;;;;;5035656;28;20464;-78
2023/01/27 03:49:15;;;;;;;16.70;7.57;;;1.20;64.60;;;;;;5033883;28;20436;-77
2023/01/27 03:51:41;;;;;;;12.70;8.13;;;1.20;64.80;;;;;;5035430;28;20213;-78
2023/01/27 03:54:08;;;;;;;11.93;6.50;;;1.30;64.80;;;;;;5035346;28;20669;-77
2023/01/27 03:56:34;;;;;;;11.40;7.83;;;1.30;64.60;;;;;;5035035;28;20198;-78
2023/01/27 03:58:59;;;;;;;16.40;8.50;;;1.40;64.40;;;;;;5034841;28;20468;-78
2023/01/27 04:01:25;;;;;;;10.90;6.70;;;1.40;63.80;;;;;;5035587;28;20202;-77
2023/01/27 04:06:51;;;;;;;14.27;7.60;;;1.50;63.70;;;;;;5035240;28;20220;-77
2023/01/27 04:09:25;;;;;;;11.80;7.50;;;1.50;63.30;;;;;;5035405;28;20858;-78
2023/01/27 04:11:55;;;;;;;12.97;8.10;;;1.50;63.60;;;;;;5035420;28;20444;-77
2023/01/27 04:14:37;;;;;;;13.70;7.77;;;1.50;63.40;;;;;;5038250;28;20418;-77
2023/01/27 04:17:17;;;;;;;11.03;7.43;;;1.50;63.60;;;;;;5038914;28;20489;-78
2023/01/27 04:19:42;;;;;;;12.70;7.03;;;1.60;63.20;;;;;;5038282;28;20794;-78
2023/01/27 04:22:10;;;;;;;12.80;6.97;;;1.60;63.10;;;;;;5038651;28;20411;-78
2023/01/27 04:24:35;;;;;;;14.00;7.83;;;1.40;63.30;;;;;;5038806;28;20444;-78
2023/01/27 04:27:08;;;;;;;12.10;7.37;;;1.50;63.30;;;;;;5038785;28;20406;-76
2023/01/27 04:29:36;;;;;;;12.10;6.77;;;1.60;63.50;;;;;;5038298;28;20191;-76
2023/01/27 04:32:07;;;;;;;10.83;6.10;;;1.60;63.20;;;;;;5038684;28;20529;-77
2023/01/27 04:34:32;;;;;;;10.30;6.33;;;1.70;66.60;;;;;;5020943;28;20547;-79
2023/01/27 04:36:58;;;;;;;11.37;7.27;;;1.70;64.30;;;;;;5038251;28;20865;-77
2023/01/27 04:39:25;;;;;;;12.57;8.77;;;1.70;63.70;;;;;;5038487;28;20428;-78
2023/01/27 04:41:51;;;;;;;10.57;6.70;;;1.80;64.00;;;;;;5038717;28;20407;-78
2023/01/27 04:44:19;;;;;;;10.40;7.13;;;1.90;63.30;;;;;;5038317;28;20405;-78
2023/01/27 04:46:44;;;;;;;12.20;6.93;;;1.90;63.20;;;;;;5038091;28;20779;-78
2023/01/27 04:49:10;;;;;;;12.57;6.53;;;1.90;62.00;;;;;;5036737;28;20438;-77
2023/01/27 04:51:36;;;;;;;12.80;6.43;;;2.00;63.10;;;;;;5037763;28;20180;-77
2023/01/27 04:54:05;;;;;;;9.07;5.97;;;2.00;62.00;;;;;;5038081;28;20637;-77
2023/01/27 04:56:35;;;;;;;10.83;6.80;;;2.10;61.90;;;;;;5038019;28;20197;-78
2023/01/27 04:59:10;;;;;;;9.97;5.33;;;2.10;61.20;;;;;;5037733;28;20946;-78
2023/01/27 05:01:35;;;;;;;11.40;6.37;;;2.10;61.10;;;;;;5038025;28;20506;-78
2023/01/27 05:04:01;;;;;;;10.97;6.53;;;2.10;61.30;;;;;;5038010;28;20498;-77
2023/01/27 05:06:27;;;;;;;9.77;5.90;;;2.10;61.00;;;;;;5036259;28;20176;-77
2023/01/27 05:08:53;;;;;;;9.33;6.13;;;2.20;61.40;;;;;;5037655;28;20272;-77
2023/01/27 05:11:19;;;;;;;8.70;6.10;;;2.20;61.30;;;;;;5037484;28;20440;-77
2023/01/27 05:13:45;;;;;;;13.00;7.67;;;2.20;60.90;;;;;;5037788;28;20436;-77
2023/01/27 05:16:19;;;;;;;14.30;8.70;;;2.10;61.20;;;;;;5037764;28;20564;-77
2023/01/27 05:18:47;;;;;;;13.70;8.10;;;2.10;61.40;;;;;;5036609;28;20807;-77
2023/01/27 05:21:15;;;;;;;10.57;6.90;;;2.10;61.60;;;;;;5038255;28;20440;-78
2023/01/27 05:23:41;;;;;;;13.87;6.97;;;2.20;61.20;;;;;;5036968;28;20713;-77
2023/01/27 05:26:13;;;;;;;10.40;6.70;;;2.20;60.80;;;;;;5037373;28;20422;-77
2023/01/27 05:28:41;;;;;;;9.70;7.37;;;2.20;60.80;;;;;;5037155;28;20223;-77
2023/01/27 05:31:09;;;;;;;10.50;6.33;;;2.20;60.70;;;;;;5035691;28;20784;-77
2023/01/27 05:33:34;;;;;;;10.40;6.53;;;2.20;60.70;;;;;;5036834;28;20429;-76
2023/01/27 05:36:02;;;;;;;12.73;7.37;;;2.30;61.10;;;;;;5036398;28;20804;-77
2023/01/27 05:38:28;;;;;;;16.63;7.03;;;2.20;62.10;;;;;;5035448;28;20192;-78
2023/01/27 05:40:59;;;;;;;11.60;6.93;;;2.20;62.40;;;;;;5037326;28;20409;-78
2023/01/27 05:43:25;;;;;;;12.10;7.77;;;2.10;61.90;;;;;;5037022;28;20411;-79
2023/01/27 05:45:51;;;;;;;10.63;6.57;;;2.20;61.50;;;;;;5036326;28;20781;-78
2023/01/27 05:48:17;;;;;;;9.60;7.00;;;2.10;61.20;;;;;;5037171;28;20243;-78
2023/01/27 05:50:42;;;;;;;11.70;7.17;;;2.10;61.10;;;;;;5037045;28;20211;-78
2023/01/27 05:53:08;;;;;;;12.40;6.07;;;2.10;61.20;;;;;;5037288;28;20503;-78
2023/01/27 05:55:33;;;;;;;10.90;5.83;;;2.00;61.50;;;;;;5037808;28;20271;-78
2023/01/27 05:57:59;;;;;;;9.33;5.90;;;2.10;61.50;;;;;;5037019;28;20181;-78
2023/01/27 06:00:25;;;;;;;10.10;7.00;;;2.00;61.20;;;;;;5036777;28;20176;-78
2023/01/27 06:02:50;;;;;;;8.20;5.30;;;2.00;61.60;;;;;;5035675;28;20633;-79
2023/01/27 06:05:16;;;;;;;9.80;6.00;;;2.10;61.50;;;;;;5037980;28;20496;-77
2023/01/27 06:07:42;;;;;;;10.77;6.50;;;2.10;61.50;;;;;;5041033;28;20548;-77
2023/01/27 06:10:08;;;;;;;11.00;6.27;;;2.00;61.60;;;;;;5037259;28;20172;-78
2023/01/27 06:12:34;;;;;;;9.53;6.17;;;1.90;61.60;;;;;;5036621;28;20505;-77
2023/01/27 06:14:59;;;;;;;9.60;5.70;;;1.80;62.20;;;;;;5036761;28;20531;-77
2023/01/27 06:17:25;;;;;;;13.53;7.30;;;1.80;62.40;;;;;;5036683;28;20424;-78
2023/01/27 06:19:51;;;;;;;10.67;6.07;;;1.70;62.80;;;;;;5036667;28;20193;-77
2023/01/27 06:22:16;;;;;;;10.80;5.83;;;1.60;63.10;;;;;;5036399;28;20184;-77
2023/01/27 06:24:42;;;;;;;8.77;5.43;;;1.60;63.40;;;;;;5035668;28;20214;-79
2023/01/27 06:27:07;;;;;;;9.50;6.23;;;1.60;63.40;;;;;;5036962;28;20173;-79
2023/01/27 06:29:33;;;;;;;9.40;5.30;;;1.50;63.30;;;;;;5036652;28;20541;-77
2023/01/27 06:31:59;;;;;;;11.00;6.47;;;1.40;63.80;;;;;;5036077;28;20179;-79
2023/01/27 06:34:24;;;;;;;9.37;5.40;;;1.50;64.00;;;;;;5034663;28;20175;-77
2023/01/27 06:36:52;;;;;;;8.43;5.27;;;1.60;63.80;;;;;;5035870;28;20201;-78
2023/01/27 06:39:18;;;;;;;7.53;5.23;;;1.60;63.80;;;;;;5035888;28;20656;-77
2023/01/27 06:41:44;;;;;;;10.70;6.13;;;1.60;63.70;;;;;;5035707;28;20414;-78
2023/01/27 06:44:09;;;;;;;8.10;4.77;;;1.70;63.60;;;;;;5036543;28;20172;-78
2023/01/27 06:46:35;;;;;;;7.67;4.60;;;1.50;63.40;;;;;;5036164;28;20505;-78
2023/01/27 06:49:00;;;;;;;7.23;5.80;;;1.50;63.70;;;;;;5034156;28;20204;-78
2023/01/27 06:51:26;;;;;;;8.80;4.57;;;1.50;64.10;;;;;;5035914;28;20602;-77
2023/01/27 06:53:51;;;;;;;8.73;5.63;;;1.40;64.30;;;;;;5036424;28;20194;-78
2023/01/27 06:56:17;;;;;;;7.80;5.03;;;1.60;64.40;;;;;;5036033;28;20196;-78
2023/01/27 06:58:43;;;;;;;7.70;4.30;;;1.60;63.80;;;;;;5035928;28;20179;-79
2023/01/27 07:01:08;;;;;;;6.30;3.90;;;1.60;63.90;;;;;;5035383;28;20254;-80
2023/01/27 07:03:34;;;;;;;9.10;4.67;;;1.40;64.00;;;;;;5035038;28;20163;-79
2023/01/27 07:06:00;;;;;;;7.80;5.10;;;1.50;63.90;;;;;;5034927;28;20179;-78
2023/01/27 07:08:26;;;;;;;8.50;5.17;;;1.50;63.50;;;;;;5034751;28;20430;-80
2023/01/27 07:10:51;;;;;;;8.00;4.17;;;1.70;63.80;;;;;;5034789;28;20260;-80
2023/01/27 07:13:20;;;;;;;8.57;4.73;;;1.70;63.30;;;;;;5034935;28;20609;-80
2023/01/27 07:15:45;;;;;;;9.30;5.10;;;1.70;63.00;;;;;;5033796;28;20592;-80
2023/01/27 07:18:13;;;;;;;7.00;4.43;;;1.70;63.00;;;;;;5035500;28;20434;-80
2023/01/27 07:20:39;;;;;;;5.90;3.93;;;1.70;63.00;;;;;;5036241;28;20167;-80
2023/01/27 07:23:05;;;;;;;5.67;3.60;;;1.70;62.90;;;;;;5036989;28;20752;-80
2023/01/27 07:25:33;;;;;;;7.67;4.43;;;1.80;62.80;;;;;;5036139;28;20413;-80
2023/01/27 07:28:00;;;;;;;7.40;3.90;;;1.70;62.70;;;;;;5034091;28;20210;-79
2023/01/27 07:30:26;;;;;;;6.13;4.37;;;1.80;62.80;;;;;;5035521;28;20518;-81
2023/01/27 07:32:53;;;;;;;7.10;4.17;;;1.90;62.80;;;;;;5035543;28;20802;-79
2023/01/27 07:35:20;;;;;;;5.00;3.67;;;1.90;62.70;;;;;;5035249;28;20544;-79
2023/01/27 07:37:46;;;;;;;8.33;5.23;;;2.00;62.60;;;;;;5035160;28;20399;-80
2023/01/27 07:40:14;;;;;;;8.50;5.00;;;2.00;62.60;;;;;;5034999;28;20806;-79
2023/01/27 07:42:40;;;;;;;7.20;4.73;;;2.00;62.70;;;;;;5033160;28;20294;-81
2023/01/27 07:45:06;;;;;;;11.50;5.33;;;2.00;62.80;;;;;;5034513;28;20413;-80
2023/01/27 07:47:32;;;;;;;10.40;6.07;;;2.20;63.40;;;;;;5036380;28;20183;-80
2023/01/27 07:49:58;;;;;;;10.70;7.07;;;2.20;62.60;;;;;;5042817;28;20903;-81
2023/01/27 07:52:23;;;;;;;7.43;4.80;;;2.10;62.40;;;;;;5045532;28;20180;-81
2023/01/27 07:54:49;;;;;;;9.73;5.03;;;2.20;62.10;;;;;;5039359;28;20199;-80
2023/01/27 07:57:14;;;;;;;9.83;5.10;;;2.30;61.80;;;;;;5038460;28;20180;-80
2023/01/27 07:59:40;;;;;;;11.60;5.43;;;2.30;61.60;;;;;;5040508;28;20197;-81
2023/01/27 08:02:06;;;;;;;12.80;7.10;;;2.40;61.40;;;;;;5039628;28;20617;-80
2023/01/27 08:04:31;;;;;;;6.83;4.53;;;2.40;61.30;;;;;;5038574;28;20273;-80
2023/01/27 08:06:57;;;;;;;6.47;4.67;;;2.60;61.10;;;;;;5038485;28;20172;-81
2023/01/27 08:09:22;;;;;;;11.30;7.47;;;2.60;60.50;;;;;;5037636;28;20215;-80
2023/01/27 08:11:48;;;;;;;15.33;8.87;;;2.50;60.40;;;;;;5038208;28;20207;-81
2023/01/27 08:14:14;;;;;;;7.23;4.70;;;2.30;60.60;;;;;;5038583;28;20178;-80
2023/01/27 08:16:39;;;;;;;5.57;3.90;;;2.40;60.70;;;;;;5038375;28;20274;-80
2023/01/27 08:19:05;;;;;;;18.60;7.17;;;2.50;61.00;;;;;;5039621;28;20188;-80
2023/01/27 08:21:31;;;;;;;5.57;4.33;;;2.50;60.70;;;;;;5039245;28;20178;-79
2023/01/27 08:23:59;;;;;;;12.83;6.10;;;2.60;60.50;;;;;;5038696;28;20216;-79
2023/01/27 08:26:25;;;;;;;12.30;6.40;;;2.60;60.00;;;;;;5037646;28;20500;-78
2023/01/27 08:28:51;;;;;;;7.93;5.70;;;2.70;59.90;;;;;;5037820;28;20823;-79
2023/01/27 08:31:17;;;;;;;8.10;5.73;;;2.70;59.70;;;;;;5038031;28;20412;-78
2023/01/27 08:33:48;;;;;;;6.63;4.90;;;2.50;59.90;;;;;;5038399;28;20203;-79
2023/01/27 08:36:15;;;;;;;6.40;4.30;;;2.50;60.20;;;;;;5037988;28;20538;-79
2023/01/27 08:38:42;;;;;;;6.50;4.33;;;2.50;60.10;;;;;;5038268;28;20943;-78
2023/01/27 08:41:15;;;;;;;6.20;4.63;;;2.40;60.30;;;;;;5037883;28;20461;-77
2023/01/27 08:43:41;;;;;;;8.53;6.90;;;2.40;60.60;;;;;;5036485;28;20412;-79
2023/01/27 08:46:07;;;;;;;8.33;4.57;;;2.40;60.50;;;;;;5038477;28;20432;-79
2023/01/27 08:48:34;;;;;;;6.60;5.13;;;2.50;60.40;;;;;;5036894;28;20226;-79
2023/01/27 08:51:01;;;;;;;5.93;4.30;;;2.60;60.30;;;;;;5037649;28;20409;-80
2023/01/27 08:53:26;;;;;;;7.70;4.10;;;2.70;59.90;;;;;;5037972;28;20523;-80
2023/01/27 08:55:55;;;;;;;4.97;4.10;;;2.80;59.80;;;;;;5038828;28;20514;-77
2023/01/27 08:58:22;;;;;;;5.60;4.40;;;2.80;59.60;;;;;;5040585;28;20197;-79
2023/01/27 09:00:48;;;;;;;8.33;4.50;;;2.80;59.50;;;;;;5039937;28;20898;-79
2023/01/27 09:03:14;;;;;;;6.90;4.80;;;2.80;59.40;;;;;;5039811;28;20400;-78
2023/01/27 09:05:40;;;;;;;6.20;5.30;;;2.90;59.50;;;;;;5039888;28;20794;-79
2023/01/27 09:08:06;;;;;;;6.50;4.70;;;2.90;59.40;;;;;;5041303;28;20440;-79
2023/01/27 09:10:36;;;;;;;5.50;3.93;;;2.80;59.20;;;;;;5041850;28;20425;-77
2023/01/27 09:13:02;;;;;;;6.27;3.80;;;2.80;59.50;;;;;;5041948;28;20980;-80
2023/01/27 09:15:27;;;;;;;6.40;4.70;;;2.70;59.60;;;;;;5042410;28;20498;-80
2023/01/27 09:17:53;;;;;;;8.30;4.03;;;2.80;59.60;;;;;;5042060;28;20269;-79
2023/01/27 09:20:18;;;;;;;8.17;5.03;;;2.70;59.50;;;;;;5043402;28;20667;-78
2023/01/27 09:22:46;;;;;;;6.67;4.00;;;2.80;59.60;;;;;;5043885;28;20196;-79
2023/01/27 09:25:15;;;;;;;6.70;4.30;;;2.90;59.70;;;;;;5042850;28;20236;-79
2023/01/27 09:27:41;;;;;;;6.30;4.40;;;2.90;59.40;;;;;;5040410;28;20504;-80
2023/01/27 09:30:09;;;;;;;8.93;5.00;;;3.10;59.00;;;;;;5040702;28;20465;-78
2023/01/27 09:32:34;;;;;;;8.33;4.80;;;3.20;58.60;;;;;;5041337;28;20441;-79
2023/01/27 09:35:00;;;;;;;6.90;3.93;;;3.20;58.50;;;;;;5042062;28;20410;-79
2023/01/27 09:37:25;;;;;;;5.80;4.40;;;3.20;58.50;;;;;;5042521;28;20269;-81
2023/01/27 09:39:58;;;;;;;9.43;5.10;;;3.20;58.50;;;;;;5044189;28;20678;-77
2023/01/27 09:42:43;;;;;;;8.47;4.30;;;3.40;58.50;;;;;;5038750;28;20311;-75
2023/01/27 09:45:23;;;;;;;7.10;4.50;;;3.40;58.10;;;;;;5039998;28;20761;-77
2023/01/27 09:47:52;;;;;;;6.10;5.07;;;3.40;58.00;;;;;;5048569;28;20417;-76
2023/01/27 09:50:44;;;;;;;7.13;4.50;;;3.40;58.00;;;;;;5050099;28;20781;-76
2023/01/27 09:53:45;;;;;;;5.93;4.27;;;3.40;58.00;;;;;;5039749;28;20936;-78
2023/01/27 09:56:30;;;;;;;6.97;4.90;;;3.30;58.00;;;;;;5037743;28;20528;-79
2023/01/27 09:59:03;;;;;;;8.77;4.53;;;3.10;58.00;;;;;;5038464;28;20445;-79
2023/01/27 10:01:47;;;;;;;7.70;5.20;;;3.20;58.30;;;;;;5041370;28;20394;-78
2023/01/27 10:04:18;;;;;;;5.33;4.60;;;3.20;58.30;;;;;;5038844;28;20749;-79
2023/01/27 10:06:47;;;;;;;5.10;3.90;;;3.30;58.10;;;;;;5039372;28;20906;-78
2023/01/27 10:09:37;;;;;;;5.77;3.90;;;3.30;58.20;;;;;;5038119;28;20440;-78
2023/01/27 10:12:29;;;;;;;9.10;3.93;;;3.20;58.20;;;;;;5036111;28;20438;-77
2023/01/27 10:15:31;;;;;;;9.17;4.77;;;3.20;58.50;;;;;;5035672;28;20414;-79
2023/01/27 10:18:32;;;;;;;11.70;6.53;;;3.10;58.60;;;;;;5035745;28;20427;-79
2023/01/27 10:21:06;;;;;;;5.77;4.00;;;3.10;58.70;;;;;;5035713;28;20408;-79
2023/01/27 10:23:54;;;;;;;7.70;5.37;;;3.10;58.90;;;;;;5034440;28;20496;-77
2023/01/27 10:26:41;;;;;;;5.83;3.83;;;3.10;58.40;;;;;;5034972;28;20411;-79
2023/01/27 10:29:31;;;;;;;5.83;4.57;;;3.10;58.30;;;;;;5034130;28;20451;-79
2023/01/27 10:32:29;;;;;;;7.60;4.57;;;3.10;58.30;;;;;;5035197;28;20446;-79
2023/01/27 10:35:28;;;;;;;6.13;4.40;;;3.30;58.50;;;;;;5034766;28;20401;-79
2023/01/27 10:38:15;;;;;;;6.30;5.10;;;3.40;58.00;;;;;;5015728;28;20531;-79
2023/01/27 10:40:57;;;;;;;6.63;4.07;;;3.60;57.80;;;;;;5034755;28;20431;-79
2023/01/27 10:43:31;;;;;;;5.60;3.50;;;3.50;57.40;;;;;;5035762;28;20399;-78
2023/01/27 10:45:56;;;;;;;5.90;4.27;;;3.60;57.70;;;;;;5035772;28;20407;-80
2023/01/27 10:48:34;;;;;;;6.93;3.83;;;3.60;57.50;;;;;;5034616;28;20437;-80
2023/01/27 10:51:00;;;;;;;6.73;4.17;;;3.70;57.30;;;;;;5035421;28;20189;-80
2023/01/27 10:53:32;;;;;;;6.83;3.73;;;3.70;56.90;;;;;;5035852;28;20412;-78
2023/01/27 10:56:12;;;;;;;6.43;3.87;;;3.70;57.10;;;;;;5033796;28;20290;-80
2023/01/27 10:58:56;;;;;;;7.20;4.20;;;3.80;57.30;;;;;;5034783;28;20796;-78
2023/01/27 11:01:29;;;;;;;4.63;3.57;;;3.90;56.60;;;;;;5035189;28;20398;-78
2023/01/27 11:04:05;;;;;;;4.53;3.20;;;4.10;56.30;;;;;;5035334;28;20423;-79
2023/01/27 11:06:36;;;;;;;5.40;4.03;;;4.20;55.90;;;;;;5033890;28;20421;-80
2023/01/27 11:09:26;;;;;;;6.23;4.70;;;4.30;55.80;;;;;;5037577;28;20450;-77
2023/01/27 11:11:57;;;;;;;7.70;3.77;;;4.60;55.70;;;;;;5033872;28;20418;-79
2023/01/27 11:14:41;;;;;;;5.10;3.67;;;4.50;55.10;;;;;;5035866;28;20410;-80
2023/01/27 11:17:41;;;;;;;5.50;3.50;;;4.40;54.70;;;;;;5036482;28;20446;-80
2023/01/27 11:20:33;;;;;;;4.90;3.13;;;4.30;54.90;;;;;;5035657;28;20419;-79
2023/01/27 11:23:12;;;;;;;5.07;3.60;;;4.30;55.10;;;;;;5038786;28;20410;-80
2023/01/27 11:26:07;;;;;;;4.77;3.70;;;4.20;55.10;;;;;;5040623;28;20417;-80
2023/01/27 11:28:49;;;;;;;5.10;3.70;;;4.20;55.30;;;;;;5038713;28;20442;-80
2023/01/27 11:31:55;;;;;;;5.90;4.07;;;4.10;55.50;;;;;;5038625;28;20409;-80
2023/01/27 11:35:00;;;;;;;4.70;3.20;;;4.10;55.80;;;;;;5038825;28;20433;-80
2023/01/27 11:37:36;;;;;;;4.23;3.20;;;4.20;55.10;;;;;;5020750;28;20788;-79
2023/01/27 11:40:03;;;;;;;5.50;3.27;;;4.20;55.00;;;;;;5038288;28;20413;-80
2023/01/27 11:42:36;;;;;;;3.53;2.93;;;4.40;54.80;;;;;;5038117;28;20413;-77
2023/01/27 11:45:03;;;;;;;4.00;3.40;;;4.50;54.00;;;;;;5037602;28;20417;-77
2023/01/27 11:47:35;;;;;;;5.37;3.13;;;4.60;53.80;;;;;;5038619;28;20441;-80
2023/01/27 11:50:03;;;;;;;3.63;3.10;;;4.50;53.60;;;;;;5038412;28;20433;-78
2023/01/27 11:52:30;;;;;;;7.50;4.00;;;4.50;53.40;;;;;;5038607;28;20399;-78
2023/01/27 11:55:23;;;;;;;8.00;3.70;;;4.40;53.10;;;;;;5039126;28;20497;-79
2023/01/27 11:58:08;;;;;;;5.17;3.90;;;4.50;53.20;;;;;;5038311;28;20398;-79
2023/01/27 12:00:56;;;;;;;4.60;3.70;;;4.50;53.40;;;;;;5038240;28;20450;-79
2023/01/27 12:04:00;;;;;;;6.83;3.70;;;4.60;53.20;;;;;;5044154;28;20419;-78
2023/01/27 12:06:54;;;;;;;10.47;4.77;;;4.70;53.20;;;;;;5007992;28;20411;-77
2023/01/27 12:09:40;;;;;;;6.83;4.30;;;4.80;53.00;;;;;;5041827;28;20906;-78
2023/01/27 12:12:21;;;;;;;4.90;4.30;;;4.80;52.50;;;;;;5046750;28;20417;-76
2023/01/27 12:14:49;;;;;;;7.20;4.27;;;5.00;52.30;;;;;;5056352;28;20414;-78
2023/01/27 12:17:36;;;;;;;6.40;4.50;;;5.10;52.20;;;;;;5048882;28;20411;-78
2023/01/27 12:20:22;;;;;;;5.37;4.23;;;5.40;51.70;;;;;;5045768;28;20414;-79
2023/01/27 12:23:00;;;;;;;4.37;3.70;;;6.00;50.50;;;;;;5045135;28;20414;-78
2023/01/27 12:25:31;;;;;;;7.23;4.17;;;6.40;49.10;;;;;;5041937;28;20408;-78
2023/01/27 12:28:03;;;;;;;4.80;4.13;;;6.50;48.50;;;;;;5044396;28;20437;-77
2023/01/27 12:30:39;;;;;;;5.57;3.50;;;6.80;48.10;;;;;;5042429;28;20790;-79
2023/01/27 12:33:19;;;;;;;5.47;3.77;;;7.30;47.50;;;;;;5037678;28;20441;-77
2023/01/27 12:35:49;;;;;;;3.73;3.30;;;7.60;46.30;;;;;;5042646;28;20442;-79
2023/01/27 12:38:30;;;;;;;4.37;3.40;;;7.60;46.60;;;;;;5042261;28;20434;-79
2023/01/27 12:41:07;;;;;;;5.40;4.80;;;7.40;46.50;;;;;;5044261;28;20414;-78
2023/01/27 12:43:53;;;;;;;4.87;4.10;;;7.20;46.90;;;;;;5040154;28;20402;-78
2023/01/27 12:46:31;;;;;;;5.40;4.10;;;6.90;47.60;;;;;;5042241;28;20786;-79
2023/01/27 12:49:19;;;;;;;6.30;4.30;;;6.70;47.80;;;;;;5044019;28;20448;-77
2023/01/27 12:51:54;;;;;;;6.10;4.60;;;6.40;48.60;;;;;;5037342;28;20496;-78
2023/01/27 12:54:26;;;;;;;4.50;3.90;;;6.10;49.00;;;;;;5037162;28;20435;-78
2023/01/27 12:56:54;;;;;;;6.37;4.80;;;5.90;49.60;;;;;;5035528;28;20464;-78
2023/01/27 12:59:23;;;;;;;8.50;4.63;;;5.80;50.00;;;;;;5035874;28;20443;-78
2023/01/27 13:02:07;;;;;;;5.60;4.60;;;5.70;50.30;;;;;;5036634;28;20445;-77
2023/01/27 13:04:33;;;;;;;5.50;4.77;;;5.50;50.50;;;;;;5036419;28;20433;-78
2023/01/27 13:07:05;;;;;;;7.33;4.83;;;5.40;51.00;;;;;;5036107;28;20410;-78
2023/01/27 13:10:01;;;;;;;4.37;3.23;;;5.30;51.20;;;;;;5036057;28;20199;-77
2023/01/27 13:12:30;;;;;;;4.40;3.40;;;5.00;51.40;;;;;;5027715;28;20942;-76
2023/01/27 13:15:01;;;;;;;7.37;3.50;;;4.90;52.20;;;;;;5035327;28;20452;-78
2023/01/27 13:17:44;;;;;;;7.60;4.10;;;4.80;52.30;;;;;;5037142;28;20402;-80
2023/01/27 13:20:34;;;;;;;5.87;3.70;;;4.70;52.80;;;;;;5037717;28;20480;-79
2023/01/27 13:23:19;;;;;;;5.90;3.93;;;4.60;53.30;;;;;;5037321;28;20399;-77
2023/01/27 13:25:53;;;;;;;4.33;3.70;;;4.50;53.80;;;;;;5036914;28;20392;-77
2023/01/27 13:28:54;;;;;;;4.63;3.30;;;4.40;54.20;;;;;;5036603;28;20433;-78
2023/01/27 13:31:43;;;;;;;4.77;3.10;;;4.20;54.70;;;;;;5017919;28;20474;-77
2023/01/27 13:34:20;;;;;;;4.80;3.43;;;4.10;55.00;;;;;;5009200;28;20463;-78
2023/01/27 13:37:05;;;;;;;6.20;4.40;;;3.90;55.30;;;;;;5037120;28;20810;-79